Time;durP1;ratioP1;P1;durP2;ratioP2;P2;SDS_P1;SDS_P2;PMS_P1;PMS_P2;Temp;Humidity;BMP_temperature;BMP_pressure;BME280_temperature;BME280_humidity;BME280_pressure;Samples;Min_cycle;Max_cycle;Signal;HPM_P1;HPM_P2
2023/10/19 00:02:15;;;;;;;9.20;5.93;;;;;;;;;;5070776;28;20051;-83
2023/10/19 00:04:40;;;;;;;11.32;7.22;;;;;;;;;;5069912;28;20016;-83
2023/10/19 00:07:07;;;;;;;11.02;7.72;;;;;;;;;;5072751;28;20399;-81
2023/10/19 00:09:37;;;;;;;11.98;7.07;;;;;;;;;;5069054;28;20418;-83
2023/10/19 00:12:08;;;;;;;11.05;6.85;;;;;;;;;;5054632;28;20032;-83
2023/10/19 00:14:35;;;;;;;9.88;6.03;;;;;;;;;;5068448;28;20013;-84
2023/10/19 00:17:05;;;;;;;13.63;6.65;;;;;;;;;;5053268;28;20045;-83
2023/10/19 00:19:31;;;;;;;16.38;6.93;;;;;;;;;;5050293;28;20028;-81
2023/10/19 00:22:01;;;;;;;11.38;6.53;;;;;;;;;;5050184;28;20044;-80
2023/10/19 00:24:27;;;;;;;9.25;6.05;;;;;;;;;;5050470;28;20108;-83
2023/10/19 00:26:54;;;;;;;11.15;6.82;;;;;;;;;;5052675;28;20071;-82
2023/10/19 00:29:33;;;;;;;9.07;5.78;;;;;;;;;;5068713;28;20470;-84
2023/10/19 00:31:59;;;;;;;11.73;6.60;;;;;;;;;;5060533;28;20025;-85
2023/10/19 00:34:28;;;;;;;12.75;6.95;;;;;;;;;;5075453;28;20402;-83
2023/10/19 00:36:55;;;;;;;8.32;5.63;;;;;;;;;;5069659;28;20038;-83
2023/10/19 00:39:21;;;;;;;8.10;5.60;;;;;;;;;;5074813;28;20111;-83
2023/10/19 00:41:47;;;;;;;8.23;6.00;;;;;;;;;;5074869;28;20059;-84
2023/10/19 00:44:16;;;;;;;10.32;6.35;;;;;;;;;;5076055;28;20497;-84
2023/10/19 00:49:09;;;;;;;10.48;6.10;;;;;;;;;;5070114;28;20028;-85
2023/10/19 00:52:02;;;;;;;11.95;6.13;;;;;;;;;;5080190;28;20024;-84
2023/10/19 00:54:35;;;;;;;7.93;5.47;;;;;;;;;;5081273;28;20051;-84
2023/10/19 00:57:11;;;;;;;11.00;6.53;;;;;;;;;;5078420;28;20035;-84
2023/10/19 00:59:43;;;;;;;8.90;5.63;;;;;;;;;;5072219;28;20016;-82
2023/10/19 01:02:19;;;;;;;8.00;5.90;;;;;;;;;;5088574;28;20087;-85
2023/10/19 01:04:50;;;;;;;10.15;6.63;;;;;;;;;;5074345;28;20094;-81
2023/10/19 01:09:53;;;;;;;9.80;5.55;;;;;;;;;;5086161;28;20048;-83
2023/10/19 01:15:06;;;;;;;13.77;5.70;;;;;;;;;;5075956;28;20094;-82
2023/10/19 01:17:33;;;;;;;8.75;5.75;;;;;;;;;;5075952;28;20035;-82
2023/10/19 01:19:58;;;;;;;8.85;5.50;;;;;;;;;;5054524;28;20036;-85
2023/10/19 01:22:26;;;;;;;8.93;5.88;;;;;;;;;;5073219;28;20501;-83
2023/10/19 01:24:54;;;;;;;8.90;5.82;;;;;;;;;;5056247;28;20044;-84
2023/10/19 01:27:20;;;;;;;8.15;5.60;;;;;;;;;;5062027;28;20062;-88
2023/10/19 01:29:45;;;;;;;9.18;5.00;;;;;;;;;;5061427;28;20117;-86
2023/10/19 01:32:15;;;;;;;8.75;5.65;;;;;;;;;;5079431;28;20279;-82
2023/10/19 01:34:40;;;;;;;8.55;4.78;;;;;;;;;;5099233;28;20015;-83
2023/10/19 01:37:05;;;;;;;9.80;4.95;;;;;;;;;;5099026;28;20033;-82
2023/10/19 01:39:32;;;;;;;6.72;4.20;;;;;;;;;;5071579;28;20028;-84
2023/10/19 01:41:58;;;;;;;6.88;4.43;;;;;;;;;;5074208;28;20103;-85
2023/10/19 01:44:24;;;;;;;6.47;4.32;;;;;;;;;;5075087;28;20473;-84
2023/10/19 01:46:50;;;;;;;5.13;3.75;;;;;;;;;;5073160;28;20029;-83
2023/10/19 01:49:25;;;;;;;6.03;4.18;;;;;;;;;;5055194;28;20047;-84
2023/10/19 01:51:52;;;;;;;9.20;4.22;;;;;;;;;;5056286;28;20024;-83
2023/10/19 01:54:18;;;;;;;7.80;4.68;;;;;;;;;;5076037;28;20016;-84
2023/10/19 01:56:43;;;;;;;7.95;4.10;;;;;;;;;;5070928;28;20066;-82
2023/10/19 01:59:09;;;;;;;6.22;4.43;;;;;;;;;;5072709;28;20021;-84
2023/10/19 02:01:37;;;;;;;7.03;4.38;;;;;;;;;;5073171;28;20112;-83
2023/10/19 02:04:05;;;;;;;7.28;4.53;;;;;;;;;;5054829;28;20027;-84
2023/10/19 02:09:17;;;;;;;7.25;4.70;;;;;;;;;;5074112;28;20092;-83
2023/10/19 02:11:47;;;;;;;7.78;4.63;;;;;;;;;;5055657;28;20024;-83
2023/10/19 02:14:14;;;;;;;5.15;3.53;;;;;;;;;;5075168;28;20024;-84
2023/10/19 02:16:41;;;;;;;6.72;3.42;;;;;;;;;;5056912;28;20039;-84
2023/10/19 02:19:07;;;;;;;7.18;4.25;;;;;;;;;;5073464;28;20032;-83
2023/10/19 02:21:37;;;;;;;5.95;3.65;;;;;;;;;;5056017;28;20167;-83
2023/10/19 02:24:03;;;;;;;12.05;4.75;;;;;;;;;;5057539;28;20042;-82
2023/10/19 02:26:30;;;;;;;8.63;5.45;;;;;;;;;;5055532;28;20016;-83
2023/10/19 02:28:56;;;;;;;8.35;5.07;;;;;;;;;;5073042;28;20028;-83
2023/10/19 02:31:23;;;;;;;7.07;5.40;;;;;;;;;;5067841;28;20016;-84
2023/10/19 02:33:58;;;;;;;9.27;5.25;;;;;;;;;;5074400;28;20024;-84
2023/10/19 02:36:28;;;;;;;8.15;5.05;;;;;;;;;;5056749;28;20029;-85
2023/10/19 02:38:54;;;;;;;6.75;4.68;;;;;;;;;;5072595;28;20029;-86
2023/10/19 02:41:20;;;;;;;6.80;4.88;;;;;;;;;;5076186;28;20068;-85
2023/10/19 02:44:00;;;;;;;7.35;4.38;;;;;;;;;;5057270;28;20028;-85
2023/10/19 02:46:26;;;;;;;8.00;5.22;;;;;;;;;;5076184;28;20587;-84
2023/10/19 02:48:52;;;;;;;8.40;5.07;;;;;;;;;;5058656;28;20029;-85
2023/10/19 02:51:19;;;;;;;9.75;5.03;;;;;;;;;;5058144;28;20020;-85
2023/10/19 02:53:44;;;;;;;7.75;5.18;;;;;;;;;;5076640;28;20020;-84
2023/10/19 02:56:19;;;;;;;9.20;4.80;;;;;;;;;;5076532;28;20063;-86
2023/10/19 02:58:48;;;;;;;6.32;4.30;;;;;;;;;;5073590;28;20027;-85
2023/10/19 03:01:28;;;;;;;8.43;4.28;;;;;;;;;;5075665;28;20466;-86
2023/10/19 03:03:54;;;;;;;5.88;4.00;;;;;;;;;;5077415;28;20047;-87
2023/10/19 03:06:23;;;;;;;6.95;4.15;;;;;;;;;;5076443;28;20021;-86
2023/10/19 03:08:57;;;;;;;6.32;4.18;;;;;;;;;;5076461;28;20059;-84
2023/10/19 03:11:27;;;;;;;6.60;3.35;;;;;;;;;;5067054;28;20020;-87
2023/10/19 03:13:53;;;;;;;8.10;4.10;;;;;;;;;;5061186;28;20056;-86
2023/10/19 03:16:20;;;;;;;3.72;2.92;;;;;;;;;;5061906;28;20036;-86
2023/10/19 03:18:46;;;;;;;4.80;3.17;;;;;;;;;;5079294;28;20426;-85
2023/10/19 03:21:11;;;;;;;4.10;3.25;;;;;;;;;;5057401;28;20020;-86
2023/10/19 03:23:37;;;;;;;4.63;3.70;;;;;;;;;;5075240;28;20020;-87
2023/10/19 03:28:47;;;;;;;7.20;3.10;;;;;;;;;;5077670;28;20098;-85
2023/10/19 03:31:17;;;;;;;7.07;3.03;;;;;;;;;;5075677;28;20131;-86
2023/10/19 03:33:44;;;;;;;4.05;3.13;;;;;;;;;;5059891;28;20021;-84
2023/10/19 03:36:13;;;;;;;5.28;3.13;;;;;;;;;;5077397;28;20547;-86
2023/10/19 03:38:40;;;;;;;3.65;2.78;;;;;;;;;;5059852;28;20074;-86
2023/10/19 03:41:07;;;;;;;4.13;3.00;;;;;;;;;;5065331;28;20115;-85
2023/10/19 03:43:34;;;;;;;5.05;2.80;;;;;;;;;;5087376;28;20024;-84
2023/10/19 03:46:04;;;;;;;3.97;2.88;;;;;;;;;;5089400;28;20021;-86
2023/10/19 03:48:36;;;;;;;4.72;2.50;;;;;;;;;;5099886;28;20043;-85
2023/10/19 03:51:02;;;;;;;5.25;3.45;;;;;;;;;;5078401;28;20027;-85
2023/10/19 03:53:28;;;;;;;5.05;2.97;;;;;;;;;;5058622;28;20028;-84
2023/10/19 03:55:54;;;;;;;6.30;3.33;;;;;;;;;;5059364;28;20019;-85
2023/10/19 03:58:20;;;;;;;9.05;3.65;;;;;;;;;;5058931;28;20028;-85
2023/10/19 04:00:48;;;;;;;10.20;3.75;;;;;;;;;;5087221;28;20052;-84
2023/10/19 04:03:17;;;;;;;6.75;3.72;;;;;;;;;;5077129;28;20616;-84
2023/10/19 04:05:46;;;;;;;7.32;3.65;;;;;;;;;;5076738;28;20012;-84
2023/10/19 04:08:15;;;;;;;6.30;3.42;;;;;;;;;;5059083;28;20028;-84
2023/10/19 04:10:44;;;;;;;5.03;3.42;;;;;;;;;;5064521;28;20016;-84
2023/10/19 04:13:10;;;;;;;5.53;3.70;;;;;;;;;;5078542;28;20032;-84
2023/10/19 04:15:36;;;;;;;6.00;3.70;;;;;;;;;;5089719;28;20028;-84
2023/10/19 04:18:09;;;;;;;6.30;4.03;;;;;;;;;;5086680;28;20028;-84
2023/10/19 04:23:18;;;;;;;5.57;3.92;;;;;;;;;;5078306;28;20051;-85
2023/10/19 04:25:47;;;;;;;9.68;4.47;;;;;;;;;;5069095;28;20024;-84
2023/10/19 04:28:20;;;;;;;6.70;4.00;;;;;;;;;;5074517;28;20035;-85
2023/10/19 04:30:45;;;;;;;7.72;4.55;;;;;;;;;;5060639;28;20025;-85
2023/10/19 04:33:11;;;;;;;5.15;3.65;;;;;;;;;;5079119;28;20073;-85
2023/10/19 04:35:37;;;;;;;7.95;3.65;;;;;;;;;;5061977;28;20043;-85
2023/10/19 04:38:07;;;;;;;8.77;4.72;;;;;;;;;;5081280;28;20040;-85
2023/10/19 04:40:33;;;;;;;5.20;3.97;;;;;;;;;;5056389;28;20189;-85
2023/10/19 04:43:01;;;;;;;6.80;4.25;;;;;;;;;;5065197;28;20031;-85
2023/10/19 04:45:27;;;;;;;5.78;4.18;;;;;;;;;;5066925;28;20080;-85
2023/10/19 04:47:52;;;;;;;5.05;4.15;;;;;;;;;;5069545;28;20024;-85
2023/10/19 04:50:18;;;;;;;6.50;3.63;;;;;;;;;;5073532;28;20016;-85
2023/10/19 04:52:44;;;;;;;6.60;3.65;;;;;;;;;;5060354;28;20020;-85
2023/10/19 04:55:09;;;;;;;4.85;3.65;;;;;;;;;;5058676;28;20021;-85
2023/10/19 04:57:34;;;;;;;5.72;4.00;;;;;;;;;;5067328;28;20033;-86
2023/10/19 05:00:00;;;;;;;6.45;3.72;;;;;;;;;;5078607;28;20028;-85
2023/10/19 05:02:25;;;;;;;7.22;4.32;;;;;;;;;;5060964;28;20020;-85
2023/10/19 05:04:51;;;;;;;6.68;4.35;;;;;;;;;;5082093;28;20016;-85
2023/10/19 05:07:19;;;;;;;5.60;3.72;;;;;;;;;;5077338;28;20032;-84
2023/10/19 05:09:45;;;;;;;5.28;3.65;;;;;;;;;;5066051;28;20466;-86
2023/10/19 05:12:11;;;;;;;3.60;3.13;;;;;;;;;;5074270;28;20028;-85
2023/10/19 05:14:36;;;;;;;8.02;3.90;;;;;;;;;;5086624;28;20020;-85
2023/10/19 05:17:04;;;;;;;5.05;3.75;;;;;;;;;;5060022;28;20409;-85
2023/10/19 05:19:33;;;;;;;5.47;3.63;;;;;;;;;;5077074;28;20028;-85
2023/10/19 05:22:04;;;;;;;6.18;4.13;;;;;;;;;;5058516;28;20025;-85
2023/10/19 05:24:29;;;;;;;4.83;3.50;;;;;;;;;;5059704;28;20024;-85
2023/10/19 05:26:55;;;;;;;5.70;4.20;;;;;;;;;;5059350;28;20250;-84
2023/10/19 05:29:21;;;;;;;8.45;4.03;;;;;;;;;;5075593;28;20027;-84
2023/10/19 05:31:47;;;;;;;5.75;4.03;;;;;;;;;;5077072;28;20024;-85
2023/10/19 05:34:12;;;;;;;4.50;3.58;;;;;;;;;;5059974;28;20046;-84
2023/10/19 05:36:39;;;;;;;5.57;4.00;;;;;;;;;;5078026;28;20054;-85
2023/10/19 05:39:07;;;;;;;6.97;4.53;;;;;;;;;;5078354;28;20025;-85
2023/10/19 05:41:33;;;;;;;6.32;4.57;;;;;;;;;;5077437;28;20095;-84
2023/10/19 05:43:59;;;;;;;10.48;4.97;;;;;;;;;;5076989;28;20027;-85
2023/10/19 05:46:25;;;;;;;7.93;4.32;;;;;;;;;;5071413;28;20076;-85
2023/10/19 05:48:51;;;;;;;5.97;4.53;;;;;;;;;;5063299;28;20029;-85
2023/10/19 05:51:17;;;;;;;6.03;4.13;;;;;;;;;;5069417;28;20506;-84
2023/10/19 05:53:44;;;;;;;8.02;4.43;;;;;;;;;;5061935;28;20435;-85
2023/10/19 05:56:10;;;;;;;7.22;4.00;;;;;;;;;;5059111;28;20084;-85
2023/10/19 05:58:36;;;;;;;6.07;4.13;;;;;;;;;;5075058;28;20108;-85
2023/10/19 06:01:02;;;;;;;6.13;4.20;;;;;;;;;;5097623;28;20020;-85
2023/10/19 06:03:27;;;;;;;8.13;4.25;;;;;;;;;;5100191;28;20055;-85
2023/10/19 06:05:56;;;;;;;5.75;3.95;;;;;;;;;;5104785;27;20032;-86
2023/10/19 06:08:22;;;;;;;5.47;4.15;;;;;;;;;;5106149;27;20048;-85
2023/10/19 06:10:52;;;;;;;7.10;4.57;;;;;;;;;;5079228;28;20025;-85
2023/10/19 06:13:17;;;;;;;6.45;3.50;;;;;;;;;;5078622;28;20036;-85
2023/10/19 06:15:43;;;;;;;6.30;3.67;;;;;;;;;;5069348;28;20108;-84
2023/10/19 06:18:10;;;;;;;7.88;4.63;;;;;;;;;;5084380;28;20029;-85
2023/10/19 06:20:36;;;;;;;8.63;4.45;;;;;;;;;;5069208;28;20069;-84
2023/10/19 06:23:05;;;;;;;8.60;3.72;;;;;;;;;;5091269;28;20029;-84
2023/10/19 06:25:31;;;;;;;6.38;4.55;;;;;;;;;;5099547;28;20024;-84
2023/10/19 06:27:57;;;;;;;7.72;4.95;;;;;;;;;;5093631;28;20041;-84
2023/10/19 06:30:23;;;;;;;7.63;5.13;;;;;;;;;;5080128;28;20029;-84
2023/10/19 06:33:00;;;;;;;9.25;5.85;;;;;;;;;;5080429;28;20150;-86
2023/10/19 06:35:26;;;;;;;10.25;5.15;;;;;;;;;;5078200;28;20047;-83
2023/10/19 06:37:53;;;;;;;9.95;5.07;;;;;;;;;;5079980;28;20037;-83
2023/10/19 06:40:18;;;;;;;9.45;5.50;;;;;;;;;;5060340;28;20075;-82
2023/10/19 06:42:48;;;;;;;8.20;4.78;;;;;;;;;;5078033;28;20020;-83
2023/10/19 06:45:14;;;;;;;8.73;5.00;;;;;;;;;;5061723;28;20020;-83
2023/10/19 06:47:44;;;;;;;14.35;5.03;;;;;;;;;;5086113;28;20042;-84
2023/10/19 06:50:11;;;;;;;7.00;3.88;;;;;;;;;;5076441;28;20021;-86
2023/10/19 06:52:39;;;;;;;6.38;4.53;;;;;;;;;;5072683;28;20035;-85
2023/10/19 06:55:13;;;;;;;7.82;5.00;;;;;;;;;;5097526;28;20042;-85
2023/10/19 06:57:38;;;;;;;7.72;4.95;;;;;;;;;;5080110;28;20005;-85
2023/10/19 07:00:14;;;;;;;9.65;5.60;;;;;;;;;;5089305;28;20042;-85
2023/10/19 07:02:40;;;;;;;7.40;4.78;;;;;;;;;;5099564;28;20016;-85
2023/10/19 07:05:06;;;;;;;8.07;5.03;;;;;;;;;;5097120;28;20059;-85
2023/10/19 07:07:31;;;;;;;6.28;4.97;;;;;;;;;;5089360;28;20032;-86
2023/10/19 07:09:57;;;;;;;15.40;5.03;;;;;;;;;;5066842;28;20032;-86
2023/10/19 07:12:23;;;;;;;9.80;4.63;;;;;;;;;;5083480;28;20032;-86
2023/10/19 07:14:48;;;;;;;8.07;5.45;;;;;;;;;;5064068;28;20020;-85
2023/10/19 07:17:13;;;;;;;9.07;4.60;;;;;;;;;;5065392;28;20036;-86
2023/10/19 07:19:43;;;;;;;8.05;4.70;;;;;;;;;;5067639;28;20381;-86
2023/10/19 07:22:09;;;;;;;7.38;5.47;;;;;;;;;;5083238;28;20386;-86
2023/10/19 07:24:37;;;;;;;13.35;5.68;;;;;;;;;;5063923;28;20020;-86
2023/10/19 07:27:07;;;;;;;10.77;5.85;;;;;;;;;;5080753;28;20020;-86
2023/10/19 07:29:33;;;;;;;8.75;5.25;;;;;;;;;;5073381;28;20466;-85
2023/10/19 07:31:59;;;;;;;9.82;4.85;;;;;;;;;;5061717;28;20031;-85
2023/10/19 07:34:27;;;;;;;7.00;4.95;;;;;;;;;;5080891;28;20016;-86
2023/10/19 07:36:57;;;;;;;11.10;4.63;;;;;;;;;;5080267;28;20517;-86
2023/10/19 07:39:25;;;;;;;8.85;5.45;;;;;;;;;;5079587;28;20115;-86
2023/10/19 07:41:50;;;;;;;7.25;5.00;;;;;;;;;;5061761;28;20035;-86
2023/10/19 07:44:16;;;;;;;9.00;5.55;;;;;;;;;;5061294;28;20024;-86
2023/10/19 07:46:42;;;;;;;9.60;5.10;;;;;;;;;;5059667;28;20020;-86
2023/10/19 07:49:07;;;;;;;8.77;4.93;;;;;;;;;;5079163;28;20025;-86
2023/10/19 07:51:33;;;;;;;7.95;5.47;;;;;;;;;;5078985;28;20497;-86
2023/10/19 07:53:58;;;;;;;8.20;5.57;;;;;;;;;;5077365;28;20104;-85
2023/10/19 07:56:23;;;;;;;7.15;5.25;;;;;;;;;;5060828;28;20028;-87
2023/10/19 07:58:50;;;;;;;9.30;5.63;;;;;;;;;;5079842;28;20451;-87
2023/10/19 08:01:16;;;;;;;8.90;5.05;;;;;;;;;;5079073;28;20027;-87
2023/10/19 08:03:41;;;;;;;7.60;4.97;;;;;;;;;;5079273;28;20080;-87
2023/10/19 08:06:06;;;;;;;7.28;5.18;;;;;;;;;;5079759;28;20451;-87
2023/10/19 08:08:35;;;;;;;8.88;5.15;;;;;;;;;;5061752;28;20012;-86
2023/10/19 08:11:00;;;;;;;7.30;5.00;;;;;;;;;;5079353;28;20029;-87
2023/10/19 08:13:26;;;;;;;11.60;5.57;;;;;;;;;;5079956;28;20028;-87
2023/10/19 08:15:52;;;;;;;6.57;5.28;;;;;;;;;;5061762;28;20052;-87
2023/10/19 08:18:18;;;;;;;7.32;5.10;;;;;;;;;;5079649;28;20543;-86
2023/10/19 08:20:45;;;;;;;6.78;4.45;;;;;;;;;;5061493;28;20868;-86
2023/10/19 08:23:13;;;;;;;8.80;5.00;;;;;;;;;;5078602;28;20082;-87
2023/10/19 08:25:39;;;;;;;7.63;4.75;;;;;;;;;;5078244;28;20536;-86
2023/10/19 08:28:04;;;;;;;7.50;4.55;;;;;;;;;;5077254;28;20020;-86
2023/10/19 08:30:30;;;;;;;6.50;4.63;;;;;;;;;;5081597;28;20122;-86
2023/10/19 08:32:57;;;;;;;7.72;4.60;;;;;;;;;;5082422;28;20078;-86
2023/10/19 08:35:24;;;;;;;7.43;4.38;;;;;;;;;;5070725;28;20022;-86
2023/10/19 08:37:50;;;;;;;6.85;4.03;;;;;;;;;;5091929;28;20033;-86
2023/10/19 08:40:17;;;;;;;10.48;4.68;;;;;;;;;;5090681;28;20028;-86
2023/10/19 08:42:45;;;;;;;5.80;4.28;;;;;;;;;;5065905;28;20158;-85
2023/10/19 08:45:12;;;;;;;6.78;3.83;;;;;;;;;;5062847;28;20517;-86
2023/10/19 08:47:48;;;;;;;5.80;3.53;;;;;;;;;;5084423;28;20085;-86
2023/10/19 08:50:14;;;;;;;6.65;3.97;;;;;;;;;;5067033;28;20024;-86
2023/10/19 08:52:42;;;;;;;9.95;4.25;;;;;;;;;;5079537;28;20063;-86
2023/10/19 08:55:09;;;;;;;5.80;3.72;;;;;;;;;;5080477;28;20032;-85
2023/10/19 08:57:35;;;;;;;5.40;3.80;;;;;;;;;;5090269;28;20020;-85
2023/10/19 09:00:02;;;;;;;5.88;3.53;;;;;;;;;;5094776;28;20028;-85
2023/10/19 09:02:28;;;;;;;5.80;4.03;;;;;;;;;;5078027;28;20123;-85
2023/10/19 09:04:53;;;;;;;6.25;3.88;;;;;;;;;;5073575;28;20067;-85
2023/10/19 09:07:19;;;;;;;6.90;4.00;;;;;;;;;;5076827;28;20036;-87
2023/10/19 09:09:47;;;;;;;6.68;3.58;;;;;;;;;;5071721;28;20036;-87
2023/10/19 09:12:13;;;;;;;7.95;4.13;;;;;;;;;;5079482;28;20432;-84
2023/10/19 09:14:43;;;;;;;5.47;3.85;;;;;;;;;;5076381;28;20051;-85
2023/10/19 09:17:10;;;;;;;4.72;3.78;;;;;;;;;;5077219;28;20033;-85
2023/10/19 09:19:43;;;;;;;6.40;3.92;;;;;;;;;;5067956;28;20040;-84
2023/10/19 09:22:16;;;;;;;5.60;3.97;;;;;;;;;;5074544;28;20020;-85
2023/10/19 09:24:43;;;;;;;8.80;3.60;;;;;;;;;;5074424;28;20044;-84
2023/10/19 09:27:08;;;;;;;6.03;3.83;;;;;;;;;;5074851;28;20119;-85
2023/10/19 09:29:34;;;;;;;7.50;3.97;;;;;;;;;;5068616;28;20052;-85
2023/10/19 09:32:04;;;;;;;5.65;3.75;;;;;;;;;;5078544;28;20028;-85
2023/10/19 09:34:33;;;;;;;5.47;3.55;;;;;;;;;;5076270;28;20056;-86
2023/10/19 09:37:03;;;;;;;7.57;3.35;;;;;;;;;;5074141;28;20025;-87
2023/10/19 09:39:34;;;;;;;7.72;3.55;;;;;;;;;;5073070;28;20517;-86
2023/10/19 09:42:05;;;;;;;5.07;3.47;;;;;;;;;;5073800;28;20025;-86
2023/10/19 09:44:34;;;;;;;6.55;3.60;;;;;;;;;;5063679;28;20141;-87
2023/10/19 09:47:03;;;;;;;5.68;3.60;;;;;;;;;;5074136;28;20035;-87
2023/10/19 09:49:29;;;;;;;6.30;3.50;;;;;;;;;;5075973;28;20027;-87
2023/10/19 09:51:55;;;;;;;7.57;3.40;;;;;;;;;;5076087;28;20478;-87
2023/10/19 09:54:42;;;;;;;8.05;3.50;;;;;;;;;;5074653;28;20029;-87
2023/10/19 09:57:16;;;;;;;6.45;3.75;;;;;;;;;;5066029;28;20043;-87
2023/10/19 09:59:45;;;;;;;4.45;3.15;;;;;;;;;;5066202;28;20055;-87
2023/10/19 10:02:15;;;;;;;3.47;2.75;;;;;;;;;;5074157;28;20055;-86
2023/10/19 10:04:41;;;;;;;3.90;2.70;;;;;;;;;;5058363;28;20013;-87
2023/10/19 10:07:09;;;;;;;6.45;3.03;;;;;;;;;;5063222;28;20019;-87
2023/10/19 10:09:39;;;;;;;3.95;2.80;;;;;;;;;;5077838;28;20108;-87
2023/10/19 10:12:24;;;;;;;5.82;2.78;;;;;;;;;;5077009;28;20021;-87
2023/10/19 10:15:01;;;;;;;3.85;2.70;;;;;;;;;;5075114;28;20020;-87
2023/10/19 10:17:27;;;;;;;4.07;2.67;;;;;;;;;;5075109;28;20017;-86
2023/10/19 10:20:19;;;;;;;2.92;2.47;;;;;;;;;;5062245;28;20542;-87
2023/10/19 10:22:45;;;;;;;6.63;2.90;;;;;;;;;;5066374;28;20107;-87
2023/10/19 10:25:27;;;;;;;6.75;3.13;;;;;;;;;;5075396;28;20161;-88
2023/10/19 10:27:54;;;;;;;4.07;2.95;;;;;;;;;;5066639;28;20021;-87
2023/10/19 10:30:19;;;;;;;3.92;3.03;;;;;;;;;;5057298;28;20029;-86
2023/10/19 10:32:53;;;;;;;5.60;3.53;;;;;;;;;;5058851;28;20051;-87
2023/10/19 10:35:36;;;;;;;6.28;2.95;;;;;;;;;;5075012;28;20453;-86
2023/10/19 10:38:06;;;;;;;5.15;2.90;;;;;;;;;;5068176;28;20032;-86
2023/10/19 10:40:49;;;;;;;7.43;2.80;;;;;;;;;;5059732;28;20112;-86
2023/10/19 10:43:18;;;;;;;5.82;2.97;;;;;;;;;;5062305;28;20044;-86
2023/10/19 10:45:46;;;;;;;7.93;3.35;;;;;;;;;;5066022;28;20428;-86
2023/10/19 10:48:16;;;;;;;6.18;3.00;;;;;;;;;;5056608;28;20036;-86
2023/10/19 10:50:42;;;;;;;9.38;2.63;;;;;;;;;;5075468;28;20036;-86
2023/10/19 10:53:11;;;;;;;3.50;2.20;;;;;;;;;;5072457;28;20588;-86
2023/10/19 10:55:37;;;;;;;3.67;2.45;;;;;;;;;;5073431;28;20032;-86
2023/10/19 10:58:02;;;;;;;7.13;2.53;;;;;;;;;;5095378;28;20033;-86
2023/10/19 11:00:28;;;;;;;3.03;2.60;;;;;;;;;;5077515;28;20040;-85
2023/10/19 11:03:04;;;;;;;4.00;2.40;;;;;;;;;;5079085;28;20225;-86
2023/10/19 11:05:33;;;;;;;5.63;2.90;;;;;;;;;;5062711;28;20020;-86
2023/10/19 11:08:13;;;;;;;4.35;2.67;;;;;;;;;;5059101;28;20462;-85
2023/10/19 11:10:44;;;;;;;5.90;2.78;;;;;;;;;;5059002;28;20424;-86
2023/10/19 11:13:11;;;;;;;7.60;3.00;;;;;;;;;;5076875;28;20469;-86
2023/10/19 11:15:38;;;;;;;5.00;2.88;;;;;;;;;;5059831;28;20058;-85
2023/10/19 11:18:07;;;;;;;4.28;2.60;;;;;;;;;;5081850;28;20020;-86
2023/10/19 11:20:33;;;;;;;3.50;2.47;;;;;;;;;;5078026;28;20030;-86
2023/10/19 11:23:02;;;;;;;4.75;3.03;;;;;;;;;;5080974;28;20485;-86
2023/10/19 11:25:29;;;;;;;5.93;2.22;;;;;;;;;;5071185;28;20489;-86
2023/10/19 11:27:56;;;;;;;4.65;2.72;;;;;;;;;;5089541;28;20067;-85
2023/10/19 11:30:31;;;;;;;3.35;2.30;;;;;;;;;;5086245;28;20043;-87
2023/10/19 11:32:59;;;;;;;2.17;1.90;;;;;;;;;;5088960;28;20047;-87
2023/10/19 11:35:25;;;;;;;3.05;2.00;;;;;;;;;;5089167;28;20546;-87
2023/10/19 11:37:52;;;;;;;2.83;1.95;;;;;;;;;;5079229;28;20421;-88
2023/10/19 11:40:22;;;;;;;1.83;1.40;;;;;;;;;;5079033;28;20032;-87
2023/10/19 11:42:48;;;;;;;1.60;1.50;;;;;;;;;;5082972;28;20028;-86
2023/10/19 11:45:14;;;;;;;6.15;1.33;;;;;;;;;;5076715;28;20386;-87
2023/10/19 11:47:39;;;;;;;1.83;1.50;;;;;;;;;;5059749;28;20478;-87
2023/10/19 11:50:06;;;;;;;9.98;1.40;;;;;;;;;;5080351;28;20036;-87
2023/10/19 11:52:31;;;;;;;4.40;1.48;;;;;;;;;;5076865;28;20032;-86
2023/10/19 11:54:56;;;;;;;1.30;1.20;;;;;;;;;;5078649;28;20111;-87
2023/10/19 11:57:23;;;;;;;3.05;1.35;;;;;;;;;;5078150;28;20033;-87
2023/10/19 11:59:52;;;;;;;1.48;1.38;;;;;;;;;;5070762;28;20091;-86
2023/10/19 12:02:20;;;;;;;2.53;1.65;;;;;;;;;;5077806;28;20075;-86
2023/10/19 12:04:46;;;;;;;1.42;0.90;;;;;;;;;;5082119;28;20107;-86
2023/10/19 12:07:12;;;;;;;2.85;1.15;;;;;;;;;;5078090;28;20059;-87
2023/10/19 12:09:41;;;;;;;1.33;1.23;;;;;;;;;;5077605;28;20028;-87
2023/10/19 12:12:07;;;;;;;1.42;1.30;;;;;;;;;;5060680;28;20478;-87
2023/10/19 12:14:35;;;;;;;2.15;1.63;;;;;;;;;;5079722;28;20039;-86
2023/10/19 12:17:01;;;;;;;1.67;1.58;;;;;;;;;;5059357;28;20020;-86
2023/10/19 12:19:30;;;;;;;2.75;1.63;;;;;;;;;;5062099;28;20048;-87
2023/10/19 12:21:56;;;;;;;2.25;2.05;;;;;;;;;;5088280;28;20036;-86
2023/10/19 12:24:23;;;;;;;2.63;1.92;;;;;;;;;;5095523;28;20024;-86
2023/10/19 12:26:48;;;;;;;3.97;2.13;;;;;;;;;;5068943;28;20025;-86
2023/10/19 12:29:16;;;;;;;7.35;2.58;;;;;;;;;;5084565;28;20031;-86
2023/10/19 12:31:42;;;;;;;5.03;2.70;;;;;;;;;;5078010;28;20103;-86
2023/10/19 12:34:08;;;;;;;7.05;3.67;;;;;;;;;;5058528;28;20078;-87
2023/10/19 12:36:35;;;;;;;4.10;3.38;;;;;;;;;;5075808;28;20459;-86
2023/10/19 12:39:00;;;;;;;6.00;3.83;;;;;;;;;;5076994;28;20031;-86
2023/10/19 12:41:27;;;;;;;9.40;4.07;;;;;;;;;;5077298;28;20024;-86
2023/10/19 12:43:57;;;;;;;6.38;4.05;;;;;;;;;;5058668;28;20458;-86
2023/10/19 12:46:24;;;;;;;6.60;3.90;;;;;;;;;;5075562;28;20012;-86
2023/10/19 12:48:51;;;;;;;9.90;4.20;;;;;;;;;;5057385;28;20016;-86
2023/10/19 12:51:23;;;;;;;5.60;3.65;;;;;;;;;;5059115;28;20386;-84
2023/10/19 12:53:48;;;;;;;7.63;3.75;;;;;;;;;;5077006;28;20031;-84
2023/10/19 12:56:13;;;;;;;3.67;3.25;;;;;;;;;;5074539;28;20016;-85
2023/10/19 12:58:39;;;;;;;6.22;3.42;;;;;;;;;;5061273;28;20017;-84
2023/10/19 13:01:05;;;;;;;6.43;3.28;;;;;;;;;;5061280;28;20016;-84
2023/10/19 13:03:32;;;;;;;5.05;3.30;;;;;;;;;;5089396;28;20032;-84
2023/10/19 13:05:57;;;;;;;4.82;3.22;;;;;;;;;;5084162;28;20016;-84
2023/10/19 13:08:24;;;;;;;5.50;2.92;;;;;;;;;;5075251;28;20028;-84
2023/10/19 13:10:50;;;;;;;5.40;3.38;;;;;;;;;;5072553;28;20036;-84
2023/10/19 13:13:16;;;;;;;5.93;3.53;;;;;;;;;;5076737;28;20374;-83
2023/10/19 13:15:45;;;;;;;5.63;3.60;;;;;;;;;;5069452;28;20024;-84
2023/10/19 13:18:22;;;;;;;6.95;3.33;;;;;;;;;;5063824;28;20073;-85
2023/10/19 13:20:48;;;;;;;4.22;2.85;;;;;;;;;;5075467;28;20040;-85
2023/10/19 13:23:21;;;;;;;4.50;2.95;;;;;;;;;;5063095;28;20028;-84
2023/10/19 13:25:50;;;;;;;7.53;3.70;;;;;;;;;;5076493;28;20020;-84
2023/10/19 13:28:17;;;;;;;6.00;3.47;;;;;;;;;;5056123;28;20024;-84
2023/10/19 13:30:53;;;;;;;7.60;3.15;;;;;;;;;;5058797;28;20031;-85
2023/10/19 13:33:21;;;;;;;4.88;3.25;;;;;;;;;;5056152;28;20017;-85
2023/10/19 13:35:47;;;;;;;6.32;3.08;;;;;;;;;;5051855;28;20017;-86
2023/10/19 13:38:13;;;;;;;4.75;3.53;;;;;;;;;;5067925;28;20051;-85
2023/10/19 13:40:40;;;;;;;4.35;2.85;;;;;;;;;;5067076;28;20032;-85
2023/10/19 13:43:07;;;;;;;7.95;3.08;;;;;;;;;;5086241;28;20015;-86
2023/10/19 13:45:34;;;;;;;3.30;2.60;;;;;;;;;;5078158;28;20017;-85
2023/10/19 13:48:07;;;;;;;3.20;2.50;;;;;;;;;;5075196;28;20024;-85
2023/10/19 13:50:33;;;;;;;4.45;3.13;;;;;;;;;;5077682;28;20059;-84
2023/10/19 13:53:00;;;;;;;4.38;2.90;;;;;;;;;;5072123;28;20071;-85
2023/10/19 13:55:29;;;;;;;6.88;3.20;;;;;;;;;;5057189;28;20021;-86
2023/10/19 13:57:58;;;;;;;4.20;3.20;;;;;;;;;;5082932;28;20606;-86
2023/10/19 14:00:31;;;;;;;4.25;2.90;;;;;;;;;;5075970;28;20016;-84
2023/10/19 14:02:58;;;;;;;4.53;3.08;;;;;;;;;;5089519;28;20093;-86
2023/10/19 14:05:24;;;;;;;4.95;2.92;;;;;;;;;;5093294;28;20020;-85
2023/10/19 14:07:51;;;;;;;8.70;3.25;;;;;;;;;;5090176;28;20033;-84
2023/10/19 14:10:19;;;;;;;3.97;3.17;;;;;;;;;;5073715;28;20012;-85
2023/10/19 14:12:45;;;;;;;5.90;3.85;;;;;;;;;;5075626;28;20490;-85
2023/10/19 14:15:17;;;;;;;7.13;3.83;;;;;;;;;;5075151;28;20028;-85
2023/10/19 14:17:43;;;;;;;4.88;3.70;;;;;;;;;;5067220;28;20028;-85
2023/10/19 14:20:12;;;;;;;5.47;3.78;;;;;;;;;;5078659;28;20031;-85
2023/10/19 14:22:44;;;;;;;8.55;4.05;;;;;;;;;;5076836;28;20016;-85
2023/10/19 14:25:13;;;;;;;6.28;3.67;;;;;;;;;;5057551;28;20371;-84
2023/10/19 14:27:42;;;;;;;10.88;3.90;;;;;;;;;;5080382;28;20029;-85
2023/10/19 14:30:21;;;;;;;4.97;3.35;;;;;;;;;;5076250;28;20028;-85
2023/10/19 14:32:48;;;;;;;5.32;3.42;;;;;;;;;;5067233;28;20074;-88
2023/10/19 14:35:15;;;;;;;6.43;3.75;;;;;;;;;;5078277;28;20036;-85
2023/10/19 14:37:43;;;;;;;6.47;3.65;;;;;;;;;;5078745;28;20028;-86
2023/10/19 14:40:14;;;;;;;9.63;4.30;;;;;;;;;;5088987;28;20021;-85
2023/10/19 14:42:41;;;;;;;5.63;3.95;;;;;;;;;;5081307;28;20043;-85
2023/10/19 14:45:13;;;;;;;5.78;3.70;;;;;;;;;;5080254;28;20486;-85
2023/10/19 14:47:42;;;;;;;;;;;;;;;;;;5080030;28;20084;-85
2023/10/19 14:50:11;;;;;;;6.10;3.85;;;;;;;;;;5077075;28;19919;-85
2023/10/19 14:52:38;;;;;;;7.25;3.60;;;;;;;;;;5078864;28;20450;-85
2023/10/19 14:55:06;;;;;;;8.57;4.32;;;;;;;;;;5065868;28;20666;-85
2023/10/19 14:57:32;;;;;;;6.75;3.88;;;;;;;;;;5089361;28;20713;-85
2023/10/19 15:00:04;;;;;;;6.35;4.35;;;;;;;;;;5073892;28;20428;-85
2023/10/19 15:02:29;;;;;;;7.13;4.40;;;;;;;;;;5063424;28;20540;-85
2023/10/19 15:04:55;;;;;;;7.38;4.15;;;;;;;;;;5079308;28;20080;-86